Time;durP1;ratioP1;P1;durP2;ratioP2;P2;SDS_P1;SDS_P2;PMS_P1;PMS_P2;Temp;Humidity;BMP_temperature;BMP_pressure;BME280_temperature;BME280_humidity;BME280_pressure;Samples;Min_cycle;Max_cycle;Signal;HPM_P1;HPM_P2
2022/08/23 00:02:06;;;;;;;;;;;;;;;16.84;100.00;101288.06;6539626;22;19907;-84
2022/08/23 00:04:40;;;;;;;;;;;;;;;16.80;100.00;101284.84;6512494;22;19911;-84
2022/08/23 00:07:12;;;;;;;;;;;;;;;16.79;100.00;101282.31;6512192;22;19907;-84
2022/08/23 00:09:43;;;;;;;;;;;;;;;16.76;100.00;101282.66;6512231;22;19904;-84
2022/08/23 00:12:17;;;;;;;;;;;;;;;16.76;100.00;101280.84;6512702;22;20305;-84
2022/08/23 00:14:50;;;;;;;;;;;;;;;16.75;100.00;101289.91;6539004;22;20357;-84
2022/08/23 00:17:22;;;;;;;;;;;;;;;16.72;100.00;101281.34;6539234;22;19911;-84
2022/08/23 00:19:53;;;;;;;;;;;;;;;16.70;100.00;101280.69;6539395;22;19907;-84
2022/08/23 00:22:24;;;;;;;;;;;;;;;16.62;100.00;101284.25;6539605;22;19914;-83
2022/08/23 00:24:56;;;;;;;;;;;;;;;16.57;100.00;101286.59;6539511;22;20376;-84
2022/08/23 00:27:27;;;;;;;;;;;;;;;16.45;100.00;101283.41;6512752;22;19907;-83
2022/08/23 00:29:59;;;;;;;;;;;;;;;16.29;100.00;101289.66;6539423;22;19962;-84
2022/08/23 00:32:32;;;;;;;;;;;;;;;16.24;100.00;101286.63;6540221;22;19908;-84
2022/08/23 00:35:03;;;;;;;;;;;;;;;16.18;100.00;101285.47;6514151;22;19911;-84
2022/08/23 00:37:34;;;;;;;;;;;;;;;16.15;100.00;101282.28;6553742;22;19903;-84
2022/08/23 00:40:08;;;;;;;;;;;;;;;16.08;100.00;101276.72;6558568;22;19951;-84
2022/08/23 00:48:36;;;;;;;;;;;;;;;15.66;100.00;101289.22;6539287;22;19932;-84
2022/08/23 00:51:11;;;;;;;;;;;;;;;15.59;100.00;101285.53;6539181;22;20339;-84
2022/08/23 00:53:45;;;;;;;;;;;;;;;15.53;100.00;101291.53;6512897;22;20125;-84
2022/08/23 00:56:18;;;;;;;;;;;;;;;15.49;100.00;101288.34;6538779;22;19907;-84
2022/08/23 00:58:49;;;;;;;;;;;;;;;15.46;100.00;101288.69;6539279;22;19907;-83
2022/08/23 01:01:22;;;;;;;;;;;;;;;15.45;100.00;101288.84;6540246;22;19979;-84
2022/08/23 01:03:54;;;;;;;;;;;;;;;15.34;100.00;101292.69;6539249;22;19907;-83
2022/08/23 01:06:25;;;;;;;;;;;;;;;15.28;100.00;101296.84;6511801;22;19949;-83
2022/08/23 01:09:00;;;;;;;;;;;;;;;15.27;100.00;101299.69;6512940;22;20261;-83
2022/08/23 01:11:35;;;;;;;;;;;;;;;15.32;100.00;101300.91;6538696;22;19914;-84
2022/08/23 01:14:10;;;;;;;;;;;;;;;15.32;100.00;101295.53;6511798;22;19938;-84
2022/08/23 01:16:47;;;;;;;;;;;;;;;15.27;100.00;101297.88;6512454;22;19914;-84
2022/08/23 01:19:54;;;;;;;;;;;;;;;15.23;100.00;101295.66;6514777;22;19908;-84
2022/08/23 01:22:25;;;;;;;;;;;;;;;15.10;100.00;101291.56;6520658;22;19907;-83
2022/08/23 01:24:57;;;;;;;;;;;;;;;15.04;100.00;101296.75;6562204;22;19918;-83
2022/08/23 01:27:29;;;;;;;;;;;;;;;14.98;100.00;101294.72;6525063;22;19903;-84
2022/08/23 01:30:00;;;;;;;;;;;;;;;14.87;100.00;101302.03;6514206;22;20935;-84
2022/08/23 01:32:36;;;;;;;;;;;;;;;14.85;100.00;101301.38;6540021;22;19903;-84
2022/08/23 01:35:07;;;;;;;;;;;;;;;14.80;100.00;101301.00;6540935;22;19910;-84
2022/08/23 01:37:40;;;;;;;;;;;;;;;14.89;100.00;101312.63;6541216;22;20711;-84
2022/08/23 01:40:11;;;;;;;;;;;;;;;14.98;100.00;101319.72;6541033;22;19919;-84
2022/08/23 01:42:43;;;;;;;;;;;;;;;15.03;100.00;101314.72;6514060;22;19995;-84
2022/08/23 01:45:14;;;;;;;;;;;;;;;15.05;100.00;101315.38;6540534;22;19908;-84
2022/08/23 01:47:45;;;;;;;;;;;;;;;15.10;100.00;101317.59;6540161;22;19908;-84
2022/08/23 01:50:16;;;;;;;;;;;;;;;15.06;100.00;101314.41;6539941;22;19965;-84
2022/08/23 01:52:48;;;;;;;;;;;;;;;15.12;100.00;101319.13;6540203;22;19910;-84
2022/08/23 01:55:20;;;;;;;;;;;;;;;15.16;100.00;101310.75;6513166;22;19914;-84
2022/08/23 01:57:54;;;;;;;;;;;;;;;15.21;100.00;101311.94;6539608;22;19981;-84
2022/08/23 02:00:31;;;;;;;;;;;;;;;15.20;100.00;101312.97;6513022;22;19911;-84
2022/08/23 02:03:03;;;;;;;;;;;;;;;15.20;100.00;101315.63;6513192;22;19981;-83
2022/08/23 02:05:36;;;;;;;;;;;;;;;15.23;100.00;101311.78;6540369;22;19954;-84
2022/08/23 02:10:57;;;;;;;;;;;;;;;15.26;100.00;101311.47;6539930;22;19943;-84
2022/08/23 02:13:29;;;;;;;;;;;;;;;15.25;100.00;101313.31;6513332;22;19953;-84
2022/08/23 02:16:00;;;;;;;;;;;;;;;15.29;100.00;101314.66;6513055;22;19911;-84
2022/08/23 02:18:31;;;;;;;;;;;;;;;15.29;100.00;101313.84;6513134;22;19998;-84
2022/08/23 02:21:03;;;;;;;;;;;;;;;15.34;100.00;101324.06;6512725;22;19994;-84
2022/08/23 02:23:35;;;;;;;;;;;;;;;15.32;100.00;101317.03;6540705;22;19904;-84
2022/08/23 02:26:06;;;;;;;;;;;;;;;15.31;100.00;101314.50;6540457;22;19990;-84
2022/08/23 02:28:38;;;;;;;;;;;;;;;15.31;100.00;101312.66;6540052;22;20330;-84
2022/08/23 02:31:09;;;;;;;;;;;;;;;15.29;100.00;101311.97;6540080;22;19921;-84
2022/08/23 02:33:41;;;;;;;;;;;;;;;15.34;100.00;101307.94;6513155;22;19929;-84
2022/08/23 02:36:12;;;;;;;;;;;;;;;15.34;100.00;101314.19;6539301;22;20253;-84
2022/08/23 02:38:44;;;;;;;;;;;;;;;15.29;100.00;101303.09;6512680;22;19903;-84
2022/08/23 02:41:16;;;;;;;;;;;;;;;15.23;100.00;101309.09;6512465;22;19911;-84
2022/08/23 02:43:51;;;;;;;;;;;;;;;15.17;100.00;101310.59;6512637;22;19911;-84
2022/08/23 02:46:22;;;;;;;;;;;;;;;15.13;100.00;101307.38;6512934;22;19908;-84
2022/08/23 02:48:54;;;;;;;;;;;;;;;15.12;100.00;101308.38;6512253;22;20321;-83
2022/08/23 02:51:25;;;;;;;;;;;;;;;15.11;100.00;101314.75;6512655;22;19911;-84
2022/08/23 02:53:57;;;;;;;;;;;;;;;15.18;100.00;101317.66;6539947;22;19915;-84
2022/08/23 02:56:28;;;;;;;;;;;;;;;15.28;100.00;101315.66;6539799;22;19911;-84
2022/08/23 02:58:59;;;;;;;;;;;;;;;15.31;100.00;101322.56;6540702;22;20333;-84
2022/08/23 03:01:33;;;;;;;;;;;;;;;15.27;100.00;101327.44;6540884;22;19911;-84
2022/08/23 03:04:06;;;;;;;;;;;;;;;15.21;100.00;101325.38;6540617;22;19911;-84
2022/08/23 03:06:38;;;;;;;;;;;;;;;15.28;100.00;101328.25;6513390;22;20344;-84
2022/08/23 03:09:11;;;;;;;;;;;;;;;15.32;100.00;101326.91;6539561;22;19907;-84
2022/08/23 03:11:44;;;;;;;;;;;;;;;15.36;100.00;101324.75;6540434;22;19903;-84
2022/08/23 03:14:15;;;;;;;;;;;;;;;15.41;100.00;101330.47;6513460;22;20005;-84
2022/08/23 03:16:47;;;;;;;;;;;;;;;15.43;100.00;101334.72;6513573;22;20318;-84
2022/08/23 03:19:18;;;;;;;;;;;;;;;15.48;100.00;101332.38;6513568;22;19991;-84
2022/08/23 03:21:49;;;;;;;;;;;;;;;15.46;100.00;101329.03;6514113;22;19974;-84
2022/08/23 03:24:21;;;;;;;;;;;;;;;15.48;100.00;101332.38;6539679;22;19935;-84
2022/08/23 03:26:52;;;;;;;;;;;;;;;15.53;100.00;101339.09;6548652;22;19895;-84
2022/08/23 03:29:24;;;;;;;;;;;;;;;15.58;100.00;101339.47;6561826;22;19914;-84
2022/08/23 03:31:55;;;;;;;;;;;;;;;15.65;100.00;101341.31;6521489;22;19911;-84
2022/08/23 03:34:26;;;;;;;;;;;;;;;15.73;100.00;101334.31;6519820;22;19903;-84
2022/08/23 03:36:57;;;;;;;;;;;;;;;15.76;100.00;101337.53;6520026;22;19910;-84
2022/08/23 03:39:29;;;;;;;;;;;;;;;15.83;100.00;101345.75;6517573;22;19922;-84
2022/08/23 03:42:00;;;;;;;;;;;;;;;15.84;100.00;101340.22;6539981;22;19977;-84
2022/08/23 03:44:31;;;;;;;;;;;;;;;15.86;100.00;101335.50;6540492;22;19911;-84
2022/08/23 03:47:04;;;;;;;;;;;;;;;15.84;100.00;101339.41;6540710;22;19904;-84
2022/08/23 03:49:36;;;;;;;;;;;;;;;15.81;100.00;101339.72;6512272;22;19923;-84
2022/08/23 03:52:07;;;;;;;;;;;;;;;15.79;100.00;101336.34;6512673;22;20242;-84
2022/08/23 03:54:39;;;;;;;;;;;;;;;15.76;100.00;101337.53;6513586;22;19908;-84
2022/08/23 03:57:10;;;;;;;;;;;;;;;15.74;100.00;101341.34;6513689;22;19907;-84
2022/08/23 03:59:41;;;;;;;;;;;;;;;15.76;100.00;101347.44;6539189;22;19970;-84
2022/08/23 04:02:13;;;;;;;;;;;;;;;15.76;100.00;101351.00;6514020;22;19923;-85
2022/08/23 04:04:44;;;;;;;;;;;;;;;15.78;100.00;101348.13;6513916;22;19907;-84
2022/08/23 04:07:20;;;;;;;;;;;;;;;15.78;100.00;101340.06;6513169;22;19995;-84
2022/08/23 04:09:53;;;;;;;;;;;;;;;15.81;100.00;101347.78;6538943;22;19908;-84
2022/08/23 04:12:24;;;;;;;;;;;;;;;15.84;100.00;101350.16;6540589;22;19907;-84
2022/08/23 04:14:58;;;;;;;;;;;;;;;15.88;100.00;101346.13;6539650;22;19908;-84
2022/08/23 04:17:32;;;;;;;;;;;;;;;15.91;100.00;101348.47;6541024;22;19922;-84
2022/08/23 04:20:04;;;;;;;;;;;;;;;15.91;100.00;101350.34;6512767;22;19938;-84
2022/08/23 04:22:35;;;;;;;;;;;;;;;15.90;100.00;101354.03;6513625;22;19918;-84
2022/08/23 04:25:07;;;;;;;;;;;;;;;15.92;100.00;101346.63;6540545;22;19919;-83
2022/08/23 04:27:38;;;;;;;;;;;;;;;15.92;100.00;101352.88;6540317;22;20246;-84
2022/08/23 04:30:10;;;;;;;;;;;;;;;15.94;100.00;101355.41;6539729;22;19910;-84
2022/08/23 04:32:41;;;;;;;;;;;;;;;15.96;100.00;101356.06;6540785;22;20267;-84
2022/08/23 04:35:13;;;;;;;;;;;;;;;16.02;100.00;101368.84;6512259;22;20249;-84
2022/08/23 04:37:44;;;;;;;;;;;;;;;16.03;100.00;101362.47;6540153;22;19910;-84
2022/08/23 04:43:07;;;;;;;;;;;;;;;16.11;100.00;101359.81;6539906;22;19911;-84
2022/08/23 04:45:39;;;;;;;;;;;;;;;16.12;100.00;101361.47;6539272;22;19907;-84
2022/08/23 04:48:10;;;;;;;;;;;;;;;16.14;100.00;101364.81;6512865;22;19907;-84
2022/08/23 04:50:44;;;;;;;;;;;;;;;16.15;100.00;101369.22;6539702;22;19934;-84
2022/08/23 04:53:15;;;;;;;;;;;;;;;16.15;100.00;101371.91;6513262;22;20295;-84
2022/08/23 04:55:46;;;;;;;;;;;;;;;16.12;100.00;101382.16;6539645;22;19923;-84
2022/08/23 04:58:18;;;;;;;;;;;;;;;16.06;100.00;101383.66;6539668;22;19979;-84
2022/08/23 05:00:52;;;;;;;;;;;;;;;16.11;100.00;101380.47;6540620;22;19907;-84
2022/08/23 05:03:24;;;;;;;;;;;;;;;16.19;100.00;101377.78;6541203;22;19903;-84
2022/08/23 05:05:56;;;;;;;;;;;;;;;16.24;100.00;101376.28;6541621;22;20209;-84
2022/08/23 05:08:28;;;;;;;;;;;;;;;16.32;100.00;101379.97;6540796;22;19914;-84
2022/08/23 05:11:00;;;;;;;;;;;;;;;16.42;100.00;101377.97;6515423;22;20055;-83
2022/08/23 05:13:33;;;;;;;;;;;;;;;16.48;100.00;101385.41;6541759;22;20285;-83
2022/08/23 05:16:07;;;;;;;;;;;;;;;16.58;100.00;101383.34;6515114;22;20310;-83
2022/08/23 05:18:39;;;;;;;;;;;;;;;16.68;100.00;101379.66;6540181;22;19986;-83
2022/08/23 05:21:14;;;;;;;;;;;;;;;16.78;100.00;101372.25;6541739;22;20397;-83
2022/08/23 05:23:46;;;;;;;;;;;;;;;16.87;100.00;101382.03;6513726;22;19907;-84
2022/08/23 05:26:18;;;;;;;;;;;;;;;16.96;100.00;101377.47;6513871;22;19950;-84
2022/08/23 05:28:49;;;;;;;;;;;;;;;17.03;100.00;101381.16;6541088;22;20290;-83
2022/08/23 05:31:22;;;;;;;;;;;;;;;17.15;100.00;101382.47;6513486;22;19935;-83
2022/08/23 05:33:54;;;;;;;;;;;;;;;17.27;100.00;101380.25;6539487;22;19904;-84
2022/08/23 05:36:25;;;;;;;;;;;;;;;17.42;100.00;101388.44;6513948;22;19990;-83
2022/08/23 05:38:57;;;;;;;;;;;;;;;17.53;100.00;101392.59;6542304;22;20288;-83
2022/08/23 05:41:28;;;;;;;;;;;;;;;17.66;100.00;101397.47;6541497;22;20253;-84
2022/08/23 05:43:59;;;;;;;;;;;;;;;17.77;100.00;101397.88;6514257;22;19920;-84
2022/08/23 05:46:31;;;;;;;;;;;;;;;17.90;100.00;101415.41;6540482;22;19977;-83
2022/08/23 05:49:02;;;;;;;;;;;;;;;18.00;100.00;101418.72;6514519;22;19951;-84
2022/08/23 05:51:35;;;;;;;;;;;;;;;18.10;100.00;101416.66;6514861;22;19970;-84
2022/08/23 05:54:08;;;;;;;;;;;;;;;18.22;100.00;101419.78;6541366;22;20281;-83
2022/08/23 05:56:41;;;;;;;;;;;;;;;18.30;100.00;101411.63;6513468;22;19930;-84
2022/08/23 05:59:14;;;;;;;;;;;;;;;18.38;100.00;101416.13;6540122;22;20250;-84
2022/08/23 06:01:45;;;;;;;;;;;;;;;18.44;100.00;101414.56;6541242;22;19977;-84
2022/08/23 06:04:17;;;;;;;;;;;;;;;18.50;100.00;101416.56;6514074;22;19912;-84
2022/08/23 06:06:48;;;;;;;;;;;;;;;18.54;100.00;101422.44;6514165;22;20229;-84
2022/08/23 06:09:19;;;;;;;;;;;;;;;18.59;100.00;101415.47;6541172;22;19974;-84
2022/08/23 06:11:51;;;;;;;;;;;;;;;18.66;100.00;101420.97;6515485;22;19907;-84
2022/08/23 06:14:22;;;;;;;;;;;;;;;18.74;100.00;101420.91;6513566;22;19941;-84
2022/08/23 06:16:53;;;;;;;;;;;;;;;18.81;100.00;101419.16;6515266;22;19914;-84
2022/08/23 06:19:25;;;;;;;;;;;;;;;18.87;100.00;101410.34;6541585;22;20523;-85
2022/08/23 06:21:56;;;;;;;;;;;;;;;18.92;100.00;101425.19;6541992;22;19985;-84
2022/08/23 06:24:28;;;;;;;;;;;;;;;19.00;100.00;101430.50;6541132;22;20276;-83
2022/08/23 06:27:02;;;;;;;;;;;;;;;19.15;100.00;101430.53;6513247;22;19913;-84
2022/08/23 06:29:33;;;;;;;;;;;;;;;19.35;100.00;101430.81;6513182;22;19910;-83
2022/08/23 06:32:05;;;;;;;;;;;;;;;19.61;100.00;101425.75;6511587;22;19946;-85
2022/08/23 06:34:37;;;;;;;;;;;;;;;19.90;100.00;101425.94;6514370;22;20317;-83
2022/08/23 06:37:10;;;;;;;;;;;;;;;20.18;100.00;101429.63;6514454;22;19912;-84
2022/08/23 06:39:44;;;;;;;;;;;;;;;20.59;100.00;101418.13;6514710;22;19990;-83
2022/08/23 06:42:16;;;;;;;;;;;;;;;20.87;100.00;101427.38;6514385;22;20026;-84
2022/08/23 06:44:47;;;;;;;;;;;;;;;20.94;100.00;101418.22;6515319;22;19918;-84
2022/08/23 06:47:19;;;;;;;;;;;;;;;21.18;100.00;101424.25;6515633;22;20207;-83
2022/08/23 06:49:50;;;;;;;;;;;;;;;21.37;100.00;101420.00;6514950;22;19916;-84
2022/08/23 06:52:21;;;;;;;;;;;;;;;21.66;100.00;101421.63;6515485;22;19907;-84
2022/08/23 06:54:53;;;;;;;;;;;;;;;21.77;100.00;101413.94;6515078;22;19910;-83
2022/08/23 06:57:24;;;;;;;;;;;;;;;21.86;100.00;101412.72;6515668;22;19915;-84
2022/08/23 06:59:55;;;;;;;;;;;;;;;22.19;100.00;101415.53;6514088;22;19907;-84
2022/08/23 07:02:27;;;;;;;;;;;;;;;22.61;100.00;101416.25;6513799;22;19910;-84
2022/08/23 07:04:58;;;;;;;;;;;;;;;23.06;100.00;101415.63;6541729;22;19911;-84
2022/08/23 07:07:29;;;;;;;;;;;;;;;23.43;100.00;101413.25;6515194;22;19908;-84
2022/08/23 07:10:01;;;;;;;;;;;;;;;23.77;100.00;101420.25;6515101;22;19957;-84
2022/08/23 07:12:32;;;;;;;;;;;;;;;24.13;100.00;101421.56;6515391;22;19910;-84
2022/08/23 07:15:03;;;;;;;;;;;;;;;24.35;100.00;101421.19;6515452;22;19926;-84
2022/08/23 07:17:35;;;;;;;;;;;;;;;24.59;100.00;101425.03;6542256;22;19951;-84
2022/08/23 07:20:06;;;;;;;;;;;;;;;24.80;100.00;101420.28;6515083;22;19903;-84
2022/08/23 07:22:38;;;;;;;;;;;;;;;25.19;100.00;101426.41;6515805;22;19903;-84
2022/08/23 07:25:10;;;;;;;;;;;;;;;25.49;100.00;101432.00;6514343;22;19982;-83
2022/08/23 07:27:41;;;;;;;;;;;;;;;25.75;100.00;101430.81;6515669;22;19950;-84
2022/08/23 07:30:13;;;;;;;;;;;;;;;26.07;100.00;101427.94;6515109;22;19935;-84
2022/08/23 07:32:44;;;;;;;;;;;;;;;26.47;100.00;101438.25;6515397;22;19909;-84
2022/08/23 07:35:16;;;;;;;;;;;;;;;26.86;100.00;101436.00;6514594;22;19915;-84
2022/08/23 07:37:47;;;;;;;;;;;;;;;27.39;100.00;101434.22;6515268;22;19910;-84
2022/08/23 07:40:18;;;;;;;;;;;;;;;27.74;100.00;101438.78;6515244;22;19958;-84
2022/08/23 07:42:49;;;;;;;;;;;;;;;28.12;100.00;101439.25;6541833;22;19914;-84
2022/08/23 07:45:21;;;;;;;;;;;;;;;28.47;100.00;101447.28;6514185;22;20281;-84
2022/08/23 07:47:53;;;;;;;;;;;;;;;28.82;100.00;101449.84;6515455;22;19907;-84
2022/08/23 07:50:24;;;;;;;;;;;;;;;29.23;100.00;101446.94;6515126;22;19966;-84
2022/08/23 07:52:55;;;;;;;;;;;;;;;29.79;100.00;101446.84;6515622;22;19907;-84
2022/08/23 07:55:27;;;;;;;;;;;;;;;30.00;100.00;101449.81;6529972;22;19903;-83
2022/08/23 07:58:01;;;;;;;;;;;;;;;30.53;96.18;101450.94;6523752;22;19946;-84
2022/08/23 08:00:33;;;;;;;;;;;;;;;30.94;100.00;101455.97;6548700;22;19910;-83
2022/08/23 08:03:04;;;;;;;;;;;;;;;31.15;100.00;101454.19;6514813;22;19903;-83
2022/08/23 08:05:35;;;;;;;;;;;;;;;31.39;96.02;101454.59;6516584;22;19911;-83
2022/08/23 08:08:07;;;;;;;;;;;;;;;31.85;93.59;101449.28;6515535;22;19911;-83
2022/08/23 08:10:40;;;;;;;;;;;;;;;32.72;89.44;101459.69;6514776;22;19907;-83
2022/08/23 08:13:11;;;;;;;;;;;;;;;33.61;73.91;101468.38;6515631;22;19913;-83
2022/08/23 08:15:42;;;;;;;;;;;;;;;34.09;73.92;101463.16;6515166;22;20241;-82
2022/08/23 08:18:14;;;;;;;;;;;;;;;34.75;73.70;101468.53;6514687;22;20318;-83
2022/08/23 08:20:45;;;;;;;;;;;;;;;34.95;86.42;101468.34;6515273;22;19965;-83
2022/08/23 08:23:16;;;;;;;;;;;;;;;33.91;73.51;101472.13;6515353;22;19903;-83
2022/08/23 08:25:48;;;;;;;;;;;;;;;33.47;67.96;101470.91;6514973;22;20281;-83
2022/08/23 08:28:19;;;;;;;;;;;;;;;33.22;65.07;101468.19;6541592;22;19903;-83
2022/08/23 08:30:51;;;;;;;;;;;;;;;33.27;67.95;101468.19;6515178;22;19982;-83
2022/08/23 08:33:22;;;;;;;;;;;;;;;33.63;74.89;101463.38;6542119;22;19910;-83
2022/08/23 08:35:53;;;;;;;;;;;;;;;34.30;74.40;101468.59;6540449;22;20249;-83
2022/08/23 08:38:25;;;;;;;;;;;;;;;34.81;85.14;101459.88;6541710;22;19903;-83
2022/08/23 08:41:16;;;;;;;;;;;;;;;35.44;65.89;101463.69;6541930;22;19924;-83
2022/08/23 08:44:07;;;;;;;;;;;;;;;35.87;59.20;101468.41;6541724;22;19935;-83
2022/08/23 08:46:44;;;;;;;;;;;;;;;36.81;55.59;101467.53;6542072;22;19911;-83
2022/08/23 08:49:20;;;;;;;;;;;;;;;37.38;48.16;101472.06;6541062;22;19910;-83
2022/08/23 08:51:57;;;;;;;;;;;;;;;37.53;51.28;101476.50;6541976;22;19910;-83
2022/08/23 08:54:29;;;;;;;;;;;;;;;37.81;57.27;101480.09;6513788;22;19903;-83
2022/08/23 08:57:01;;;;;;;;;;;;;;;37.97;43.84;101481.38;6541880;22;19950;-83
2022/08/23 08:59:43;;;;;;;;;;;;;;;38.46;48.34;101484.44;6541996;22;19907;-83
2022/08/23 09:02:17;;;;;;;;;;;;;;;39.02;38.92;101478.59;6540989;22;19910;-83
2022/08/23 09:04:48;;;;;;;;;;;;;;;38.69;39.02;101484.47;6541525;22;19912;-83
2022/08/23 09:07:23;;;;;;;;;;;;;;;38.71;39.00;101482.19;6514125;22;20340;-83
2022/08/23 09:09:56;;;;;;;;;;;;;;;38.93;46.93;101482.13;6513674;22;19907;-84
2022/08/23 09:12:48;;;;;;;;;;;;;;;39.84;40.95;101479.06;6514720;22;19907;-83
2022/08/23 09:15:23;;;;;;;;;;;;;;;38.74;41.15;101484.34;6541233;22;19907;-83
2022/08/23 09:17:56;;;;;;;;;;;;;;;37.94;39.19;101489.53;6541251;22;20357;-84
2022/08/23 09:20:28;;;;;;;;;;;;;;;38.17;45.67;101487.69;6541626;22;19910;-83
2022/08/23 09:23:19;;;;;;;;;;;;;;;37.64;39.50;101484.34;6541091;22;19911;-83
2022/08/23 09:25:51;;;;;;;;;;;;;;;37.67;43.61;101485.69;6541013;22;19931;-84
2022/08/23 09:28:23;;;;;;;;;;;;;;;37.78;41.54;101483.50;6563069;22;19895;-84
2022/08/23 09:30:55;;;;;;;;;;;;;;;37.80;39.80;101495.97;6570921;22;19931;-83
2022/08/23 09:33:36;;;;;;;;;;;;;;;37.49;38.98;101487.41;6570249;22;19903;-83
2022/08/23 09:36:21;;;;;;;;;;;;;;;37.67;47.26;101487.63;6559739;22;19962;-83
2022/08/23 09:39:00;;;;;;;;;;;;;;;37.24;39.84;101492.38;6545438;22;19923;-83
2022/08/23 09:41:31;;;;;;;;;;;;;;;36.92;43.13;101489.59;6544515;22;19907;-83
2022/08/23 09:44:08;;;;;;;;;;;;;;;37.16;43.02;101484.69;6517153;22;19957;-83
2022/08/23 09:46:42;;;;;;;;;;;;;;;38.43;46.28;101485.06;6541791;22;19957;-83
2022/08/23 09:49:20;;;;;;;;;;;;;;;39.64;48.51;101481.31;6542014;22;19942;-83
2022/08/23 09:51:52;;;;;;;;;;;;;;;41.25;41.50;101483.34;6542411;22;19998;-83
2022/08/23 09:54:23;;;;;;;;;;;;;;;42.32;37.50;101486.75;6542664;22;19946;-83
2022/08/23 09:56:57;;;;;;;;;;;;;;;41.77;33.08;101483.09;6542415;22;19926;-83
2022/08/23 09:59:40;;;;;;;;;;;;;;;42.33;38.64;101484.81;6543090;22;19903;-84
2022/08/23 10:02:20;;;;;;;;;;;;;;;42.52;28.79;101482.34;6542023;22;19935;-83
2022/08/23 10:04:56;;;;;;;;;;;;;;;42.49;28.42;101469.78;6541428;22;19911;-83
2022/08/23 10:07:37;;;;;;;;;;;;;;;41.57;29.98;101463.09;6542840;22;19904;-83
2022/08/23 10:10:24;;;;;;;;;;;;;;;41.18;31.16;101467.91;6542507;22;19982;-83
2022/08/23 10:12:55;;;;;;;;;;;;;;;41.32;29.83;101466.84;6515530;22;20018;-83
2022/08/23 10:15:35;;;;;;;;;;;;;;;40.71;29.37;101472.63;6515700;22;19935;-83
2022/08/23 10:18:09;;;;;;;;;;;;;;;40.79;30.32;101467.00;6541716;22;19914;-83
2022/08/23 10:20:46;;;;;;;;;;;;;;;40.47;30.09;101465.63;6542835;22;19990;-83
2022/08/23 10:23:39;;;;;;;;;;;;;;;41.71;28.59;101462.88;6515710;22;19907;-83
2022/08/23 10:26:18;;;;;;;;;;;;;;;42.65;26.90;101480.38;6542182;22;20252;-83
2022/08/23 10:31:46;;;;;;;;;;;;;;;43.56;27.69;101462.59;6542923;22;20314;-84
2022/08/23 10:34:31;;;;;;;;;;;;;;;44.77;25.98;101472.13;6542611;22;20018;-83
2022/08/23 10:37:11;;;;;;;;;;;;;;;43.83;24.48;101463.81;6542677;22;19934;-83
2022/08/23 10:39:48;;;;;;;;;;;;;;;44.18;24.47;101457.63;6541850;22;20402;-83
2022/08/23 10:42:39;;;;;;;;;;;;;;;45.37;25.29;101450.31;6515190;22;20380;-83
2022/08/23 10:45:29;;;;;;;;;;;;;;;46.54;23.12;101463.69;6542022;22;19911;-83
2022/08/23 10:48:20;;;;;;;;;;;;;;;46.10;21.81;101462.00;6542150;22;20322;-86
2022/08/23 10:50:57;;;;;;;;;;;;;;;46.64;23.45;101457.41;6541088;22;20341;-83
2022/08/23 10:53:35;;;;;;;;;;;;;;;45.22;21.95;101454.78;6515465;22;20288;-83
2022/08/23 10:56:06;;;;;;;;;;;;;;;45.60;22.69;101446.81;6541503;22;19907;-83
2022/08/23 10:58:43;;;;;;;;;;;;;;;44.00;23.51;101451.50;6541907;22;19911;-83
2022/08/23 11:01:17;;;;;;;;;;;;;;;44.77;22.64;101446.81;6542394;22;19910;-83
2022/08/23 11:04:03;;;;;;;;;;;;;;;45.63;22.35;101440.44;6542423;22;19986;-83
2022/08/23 11:06:34;;;;;;;;;;;;;;;46.83;26.02;101450.06;6541796;22;19907;-83
2022/08/23 11:09:17;;;;;;;;;;;;;;;46.91;21.22;101444.19;6542258;22;19911;-83
2022/08/23 11:12:09;;;;;;;;;;;;;;;46.32;21.12;101445.50;6542135;22;19914;-83
2022/08/23 11:14:44;;;;;;;;;;;;;;;46.56;24.25;101445.19;6541239;22;20035;-83
2022/08/23 11:17:48;;;;;;;;;;;;;;;45.46;21.91;101438.84;6542065;22;19904;-83
2022/08/23 11:20:37;;;;;;;;;;;;;;;45.35;21.30;101441.44;6441347;22;20352;-83
2022/08/23 11:23:12;;;;;;;;;;;;;;;45.04;22.16;101433.81;6542249;22;19907;-83
2022/08/23 11:25:44;;;;;;;;;;;;;;;43.24;23.66;101439.91;6514695;22;19916;-83
2022/08/23 11:28:25;;;;;;;;;;;;;;;43.80;23.36;101445.72;6515820;22;20402;-83
2022/08/23 11:30:56;;;;;;;;;;;;;;;44.23;25.58;101434.09;6541475;22;20409;-83
2022/08/23 11:33:46;;;;;;;;;;;;;;;44.28;24.70;101436.66;6541797;22;19907;-83
2022/08/23 11:36:20;;;;;;;;;;;;;;;45.76;21.87;101438.31;6541921;22;19953;-83
2022/08/23 11:38:51;;;;;;;;;;;;;;;45.62;21.85;101442.44;6542534;22;30829;-83
2022/08/23 11:41:24;;;;;;;;;;;;;;;44.83;21.54;101434.09;6541853;22;19904;-83
2022/08/23 11:43:56;;;;;;;;;;;;;;;44.49;22.26;101444.84;6514252;22;19954;-83
2022/08/23 11:46:30;;;;;;;;;;;;;;;44.05;22.79;101437.19;6542099;22;19903;-83
2022/08/23 11:49:21;;;;;;;;;;;;;;;44.77;22.29;101427.13;6542300;22;19908;-83
2022/08/23 11:52:17;;;;;;;;;;;;;;;46.65;21.39;101435.66;6510520;22;19915;-83
2022/08/23 11:55:05;;;;;;;;;;;;;;;47.87;20.44;101431.88;6509813;22;19908;-83
2022/08/23 11:57:55;;;;;;;;;;;;;;;45.55;22.86;101431.03;6510330;22;19911;-83
2022/08/23 12:00:26;;;;;;;;;;;;;;;45.59;21.69;101436.75;6509964;22;20392;-83
2022/08/23 12:03:36;;;;;;;;;;;;;;;43.35;24.66;101432.66;6510353;22;19904;-83
2022/08/23 12:06:10;;;;;;;;;;;;;;;40.35;25.99;101435.53;6412408;23;19908;-83
2022/08/23 12:09:00;;;;;;;;;;;;;;;39.96;27.14;101437.38;6412652;23;20370;-83
2022/08/23 12:11:50;;;;;;;;;;;;;;;41.37;26.35;101439.50;6480449;22;19904;-83
2022/08/23 12:14:30;;;;;;;;;;;;;;;43.01;24.25;101442.38;6509314;22;19908;-83
2022/08/23 12:17:24;;;;;;;;;;;;;;;44.25;22.49;101428.91;6509573;22;20291;-83
2022/08/23 12:20:02;;;;;;;;;;;;;;;46.29;21.18;101432.97;6510128;22;20353;-83
2022/08/23 12:22:50;;;;;;;;;;;;;;;46.10;20.72;101436.66;6510487;22;19915;-83
2022/08/23 12:25:22;;;;;;;;;;;;;;;44.58;22.06;101428.63;6481651;22;43294;-83
2022/08/23 12:28:02;;;;;;;;;;;;;;;43.71;22.49;101438.56;6511230;22;19907;-83
2022/08/23 12:30:37;;;;;;;;;;;;;;;43.96;22.05;101419.66;6510951;22;19904;-83
2022/08/23 12:33:24;;;;;;;;;;;;;;;41.43;25.20;101422.50;6510187;22;19904;-83
2022/08/23 12:36:19;;;;;;;;;;;;;;;42.21;25.50;101430.34;6509997;22;19911;-83
2022/08/23 12:39:04;;;;;;;;;;;;;;;43.68;23.92;101430.84;6509104;22;19908;-83
2022/08/23 12:41:54;;;;;;;;;;;;;;;45.01;23.78;101429.75;6509896;22;19903;-83
2022/08/23 12:44:28;;;;;;;;;;;;;;;46.44;23.43;101427.59;6509619;22;19960;-83
2022/08/23 12:47:10;;;;;;;;;;;;;;;46.47;20.70;101433.31;6509701;22;19907;-83
2022/08/23 12:49:52;;;;;;;;;;;;;;;47.93;21.51;101427.50;6517179;22;19912;-84
2022/08/23 12:52:24;;;;;;;;;;;;;;;48.46;20.11;101427.31;6541849;22;20030;-84
2022/08/23 12:54:56;;;;;;;;;;;;;;;48.97;18.41;101428.56;6541827;22;19908;-83
2022/08/23 12:57:36;;;;;;;;;;;;;;;46.42;19.71;101433.63;6513938;22;19993;-83
2022/08/23 13:00:13;;;;;;;;;;;;;;;45.92;21.00;101432.59;6541724;22;19971;-84
2022/08/23 13:03:03;;;;;;;;;;;;;;;43.42;21.74;101429.25;6541407;22;19904;-83
2022/08/23 13:05:37;;;;;;;;;;;;;;;41.30;24.25;101422.41;6541626;22;19950;-83
2022/08/23 13:08:12;;;;;;;;;;;;;;;39.59;26.54;101419.22;6542168;22;19994;-83
2022/08/23 13:10:45;;;;;;;;;;;;;;;37.83;28.92;101416.56;6514285;22;20321;-83
2022/08/23 13:13:18;;;;;;;;;;;;;;;37.41;29.70;101418.59;6541639;22;19942;-84
2022/08/23 13:15:52;;;;;;;;;;;;;;;36.68;31.82;101419.16;6540772;22;19911;-84
2022/08/23 13:18:28;;;;;;;;;;;;;;;36.56;32.29;101410.47;6541846;22;19974;-84
2022/08/23 13:21:34;;;;;;;;;;;;;;;39.05;30.64;101400.72;6541327;22;20253;-83
2022/08/23 13:24:32;;;;;;;;;;;;;;;42.00;26.32;101409.91;6327862;23;19916;-84